CBR weather

Canberra International Airport
Canberra, Australian Capital Territory, Australia

Public forecast

Using degrees Celsius for public forecast. Weather courtesy of forecast.io.

METAR (pilot weather report)

Retrieved 2019/04/19 03:30 UTC (29 minutes ago):

YSCB 190330Z AUTO 27004KT 230V340 9999 // NCD 22/13 Q1026 RMK RF00.0/000.0 NOSIG RMK USE TAF FOR ARRIVALS AFTER 0600Z

TAF (pilot weather forecast)

Forecast is more than 12 hours old.

Retrieved 2019/04/18 12:07 UTC (16 hours ago):

TAF YSCB 181203Z 1812/1912 10008KT 9999 BKN015 BECMG 1822/1824 05008KT 9999 FEW030 FM190300 35010KT 9999 FEW050 FM190800 07007KT 9999 FEW020 TEMPO 1812/1824 9999 -DZ BKN010